createdAt,value
2022-07-26T00:00:43.141Z,100074.59
2022-07-26T00:03:31.447Z,100075.06
2022-07-26T00:06:18.955Z,100074.50
2022-07-26T00:09:06.437Z,100072.56
2022-07-26T00:11:53.130Z,100081.88
2022-07-26T00:14:40.061Z,100087.22
2022-07-26T00:17:27.918Z,100080.59
2022-07-26T00:20:16.242Z,100078.09
2022-07-26T00:23:03.870Z,100075.13
2022-07-26T00:25:50.799Z,100080.09
2022-07-26T00:28:37.936Z,100085.16
2022-07-26T00:31:24.753Z,100090.84
2022-07-26T00:34:11.652Z,100084.50
2022-07-26T00:36:59.963Z,100088.28
2022-07-26T00:39:46.865Z,100086.91
2022-07-26T00:42:33.980Z,100089.00
2022-07-26T00:45:21.044Z,100091.56
2022-07-26T00:48:07.918Z,100087.75
2022-07-26T00:50:56.138Z,100091.13
2022-07-26T00:53:46.205Z,100081.25
2022-07-26T00:56:34.033Z,100084.91
2022-07-26T00:59:21.179Z,100087.59
2022-07-26T01:02:09.517Z,100087.34
2022-07-26T01:04:56.387Z,100078.88
2022-07-26T01:07:44.057Z,100078.19
2022-07-26T01:10:32.242Z,100084.09
2022-07-26T01:13:20.784Z,100079.28
2022-07-26T01:16:07.969Z,100077.84
2022-07-26T01:18:54.502Z,100081.38
2022-07-26T01:21:42.976Z,100084.50
2022-07-26T01:24:29.929Z,100085.19
2022-07-26T01:27:16.767Z,100077.59
2022-07-26T01:30:03.753Z,100075.75
2022-07-26T01:32:50.506Z,100081.81
2022-07-26T01:35:37.260Z,100081.25
2022-07-26T01:38:25.634Z,100072.09
2022-07-26T01:41:12.502Z,100080.25
2022-07-26T01:43:59.360Z,100079.16
2022-07-26T01:46:46.080Z,100078.72
2022-07-26T01:49:33.227Z,100086.91
2022-07-26T01:52:19.951Z,100087.84
2022-07-26T01:55:08.561Z,100091.66
2022-07-26T01:57:55.373Z,100101.94
2022-07-26T02:00:42.471Z,100099.56
2022-07-26T02:03:29.231Z,100108.00
2022-07-26T02:06:16.268Z,100104.22
2022-07-26T02:09:03.054Z,100105.88
2022-07-26T02:11:53.322Z,100111.25
2022-07-26T02:14:40.344Z,100099.56
2022-07-26T02:17:27.499Z,100109.13
2022-07-26T02:20:16.852Z,100100.28
2022-07-26T02:23:04.026Z,100099.16
2022-07-26T02:25:50.815Z,100095.34
2022-07-26T02:28:38.922Z,100094.63
2022-07-26T02:31:32.129Z,100100.94
2022-07-26T02:34:19.891Z,100092.81
2022-07-26T02:37:06.877Z,100092.81
2022-07-26T02:39:53.828Z,100099.69
2022-07-26T02:42:41.003Z,100105.19
2022-07-26T02:45:29.852Z,100099.00
2022-07-26T02:48:16.637Z,100103.94
2022-07-26T02:51:03.774Z,100111.69
2022-07-26T02:53:50.786Z,100103.78
2022-07-26T02:56:37.712Z,100111.28
2022-07-26T02:59:24.705Z,100109.72
2022-07-26T03:02:13.087Z,100109.84
2022-07-26T03:05:02.161Z,100114.22
2022-07-26T03:07:49.216Z,100114.50
2022-07-26T03:10:36.340Z,100118.31
2022-07-26T03:13:23.179Z,100118.03
2022-07-26T03:16:10.322Z,100123.50
2022-07-26T03:18:58.853Z,100123.22
2022-07-26T03:21:45.630Z,100122.69
2022-07-26T03:24:32.543Z,100114.78
2022-07-26T03:27:19.538Z,100119.72
2022-07-26T03:30:08.302Z,100121.53
2022-07-26T03:32:55.074Z,100127.59
2022-07-26T03:35:43.161Z,100127.47
2022-07-26T03:38:31.168Z,100129.19
2022-07-26T03:41:17.934Z,100127.19
2022-07-26T03:44:05.705Z,100123.81
2022-07-26T03:46:52.607Z,100129.47
2022-07-26T03:49:39.802Z,100124.50
2022-07-26T03:52:28.099Z,100124.78
2022-07-26T03:55:33.195Z,100128.91
2022-07-26T03:58:20.060Z,100130.47
2022-07-26T04:01:06.848Z,100129.47
2022-07-26T04:03:53.941Z,100134.25
2022-07-26T04:06:41.847Z,100128.91
2022-07-26T04:09:30.973Z,100125.22
2022-07-26T04:12:17.698Z,100133.97
2022-07-26T04:15:05.779Z,100129.19
2022-07-26T04:17:52.731Z,100124.09
2022-07-26T04:20:39.602Z,100128.88
2022-07-26T04:23:26.814Z,100123.22
2022-07-26T04:26:15.021Z,100122.69
2022-07-26T04:29:01.765Z,100127.19
2022-07-26T04:31:48.710Z,100131.81
2022-07-26T04:34:35.651Z,100127.19
2022-07-26T04:37:22.564Z,100133.78
2022-07-26T04:40:11.115Z,100127.19
2022-07-26T04:43:01.606Z,100125.91
2022-07-26T04:45:49.373Z,100122.94
2022-07-26T04:48:37.944Z,100123.09
2022-07-26T04:51:25.606Z,100116.81
2022-07-26T04:54:12.518Z,100125.50
2022-07-26T04:56:59.483Z,100127.50
2022-07-26T04:59:58.168Z,100137.38
2022-07-26T05:02:56.743Z,100131.44
2022-07-26T05:05:43.764Z,100135.09
2022-07-26T05:08:30.545Z,100139.19
2022-07-26T05:11:17.507Z,100136.50
2022-07-26T05:14:04.812Z,100127.03
2022-07-26T05:16:53.356Z,100141.72
2022-07-26T05:19:40.479Z,100138.75
2022-07-26T05:22:27.400Z,100131.25
2022-07-26T05:25:14.155Z,100136.44
2022-07-26T05:28:01.211Z,100140.81
2022-07-26T05:30:47.982Z,100136.16
2022-07-26T05:33:36.270Z,100144.63
2022-07-26T05:36:23.349Z,100139.69
2022-07-26T05:39:14.216Z,100144.19
2022-07-26T05:42:02.818Z,100137.53
2022-07-26T05:44:49.683Z,100134.84
2022-07-26T05:47:38.066Z,100141.94
2022-07-26T05:50:26.525Z,100144.31
2022-07-26T05:53:13.400Z,100146.34
2022-07-26T05:56:00.294Z,100146.28
2022-07-26T05:58:47.260Z,100144.69
2022-07-26T06:01:34.927Z,100148.22
2022-07-26T06:04:22.960Z,100155.44
2022-07-26T06:07:13.246Z,100150.41
2022-07-26T06:10:00.466Z,100157.38
2022-07-26T06:12:47.277Z,100145.56
2022-07-26T06:15:34.421Z,100137.38
2022-07-26T06:18:21.689Z,100146.75
2022-07-26T06:21:08.878Z,100155.50
2022-07-26T06:23:57.105Z,100162.69
2022-07-26T06:26:44.570Z,100147.69
2022-07-26T06:29:32.084Z,100170.03
2022-07-26T06:32:19.611Z,100162.22
2022-07-26T06:35:07.049Z,100153.44
2022-07-26T06:37:53.992Z,100159.84
2022-07-26T06:40:42.711Z,100160.50
2022-07-26T06:43:29.886Z,100164.88
2022-07-26T06:46:17.047Z,100168.50
2022-07-26T06:49:04.400Z,100171.69
2022-07-26T06:51:54.168Z,100173.06
2022-07-26T06:54:41.261Z,100173.00
2022-07-26T06:57:29.610Z,100176.66
2022-07-26T07:00:17.641Z,100179.22
2022-07-26T07:03:04.786Z,100190.81
2022-07-26T07:05:51.407Z,100188.59
2022-07-26T07:08:38.270Z,100190.03
2022-07-26T07:11:27.017Z,100195.22
2022-07-26T07:14:16.448Z,100187.84
2022-07-26T07:17:03.188Z,100196.06
2022-07-26T07:19:57.741Z,100201.47
2022-07-26T07:22:44.394Z,100199.44
2022-07-26T07:25:31.389Z,100200.56
2022-07-26T07:28:18.521Z,100206.84
2022-07-26T07:31:07.468Z,100196.44
2022-07-26T07:33:55.353Z,100207.41
2022-07-26T07:36:42.728Z,100205.50
2022-07-26T07:39:38.342Z,100209.31
2022-07-26T07:42:25.409Z,100204.53
2022-07-26T07:45:12.559Z,100210.66
2022-07-26T07:48:00.791Z,100200.66
2022-07-26T07:50:47.498Z,100205.41
2022-07-26T07:53:34.652Z,100203.47
2022-07-26T07:56:22.574Z,100199.06
2022-07-26T07:59:10.563Z,100199.94
2022-07-26T08:01:57.683Z,100200.00
2022-07-26T08:04:45.893Z,100203.22
2022-07-26T08:07:32.787Z,100200.81
2022-07-26T08:10:22.921Z,100196.31
2022-07-26T08:13:10.016Z,100197.31
2022-07-26T08:15:59.456Z,100201.56
2022-07-26T08:18:57.066Z,100204.75
2022-07-26T08:21:46.802Z,100203.38
2022-07-26T08:24:34.020Z,100219.91
2022-07-26T08:27:21.212Z,100198.22
2022-07-26T08:30:09.000Z,100202.53
2022-07-26T08:32:56.062Z,100206.66
2022-07-26T08:35:43.203Z,100199.47
2022-07-26T08:38:31.455Z,100193.72
2022-07-26T08:41:18.938Z,100206.81
2022-07-26T08:44:07.032Z,100213.38
2022-07-26T08:46:54.265Z,100224.41
2022-07-26T08:49:41.811Z,100213.91
2022-07-26T08:52:28.790Z,100206.38
2022-07-26T08:55:20.123Z,100221.91
2022-07-26T08:58:07.180Z,100224.28
2022-07-26T09:01:05.325Z,100220.75
2022-07-26T09:03:52.364Z,100224.56
2022-07-26T09:06:39.641Z,100224.50
2022-07-26T09:09:27.699Z,100227.97
2022-07-26T09:12:18.281Z,100233.53
2022-07-26T09:15:07.486Z,100241.50
2022-07-26T09:17:56.602Z,100236.44
2022-07-26T09:20:47.725Z,100235.09
2022-07-26T09:23:41.181Z,100243.53
2022-07-26T09:26:29.066Z,100247.84
2022-07-26T09:29:17.246Z,100242.34
2022-07-26T09:32:12.743Z,100269.75
2022-07-26T09:35:44.251Z,100290.84
2022-07-26T09:38:18.787Z,100308.78
2022-07-26T09:41:18.608Z,100320.16
2022-07-26T09:44:07.332Z,100322.06
2022-07-26T09:46:57.378Z,100331.06
2022-07-26T09:49:44.295Z,100344.38
2022-07-26T09:52:31.126Z,100339.44
2022-07-26T09:55:18.028Z,100344.25
2022-07-26T09:58:06.427Z,100351.03
2022-07-26T10:00:53.270Z,100353.66
2022-07-26T10:03:41.532Z,100354.34
2022-07-26T10:06:30.489Z,100339.63
2022-07-26T10:09:18.605Z,100357.19
2022-07-26T10:12:08.882Z,100357.81
2022-07-26T10:14:56.322Z,100361.84
2022-07-26T10:17:43.393Z,100371.78
2022-07-26T10:20:44.422Z,100370.81
2022-07-26T10:23:39.969Z,100379.81
2022-07-26T10:26:43.261Z,100378.19
2022-07-26T10:29:31.392Z,100389.00
2022-07-26T10:32:20.516Z,100384.09
2022-07-26T10:35:30.151Z,100387.03
2022-07-26T10:38:26.421Z,100377.41
2022-07-26T10:41:13.354Z,100381.19
2022-07-26T10:44:22.330Z,100380.56
2022-07-26T10:47:18.529Z,100379.25
2022-07-26T10:50:06.931Z,100392.25
2022-07-26T10:52:59.666Z,100397.72
2022-07-26T10:55:49.870Z,100397.09
2022-07-26T10:58:43.353Z,100411.63
2022-07-26T11:01:34.554Z,100393.31
2022-07-26T11:04:22.450Z,100390.22
2022-07-26T11:07:09.284Z,100392.75
2022-07-26T11:09:57.389Z,100391.88
2022-07-26T11:12:45.838Z,100402.78
2022-07-26T11:15:32.935Z,100404.47
2022-07-26T11:18:23.331Z,100419.97
2022-07-26T11:21:13.090Z,100423.53
2022-07-26T11:24:03.680Z,100428.13
2022-07-26T11:26:50.718Z,100427.13
2022-07-26T11:29:41.086Z,100432.94
2022-07-26T11:32:28.039Z,100436.06
2022-07-26T11:35:14.953Z,100431.72
2022-07-26T11:38:11.912Z,100428.53
2022-07-26T11:40:59.252Z,100435.63
2022-07-26T11:43:46.369Z,100446.00
2022-07-26T11:46:38.294Z,100440.84
2022-07-26T11:49:52.382Z,100440.91
2022-07-26T11:52:34.442Z,100436.09
2022-07-26T11:55:27.285Z,100440.50
2022-07-26T11:58:14.524Z,100434.72
2022-07-26T12:01:01.463Z,100436.09
2022-07-26T12:03:52.137Z,100428.75
2022-07-26T12:06:39.750Z,100442.94
2022-07-26T12:09:32.002Z,100439.25
2022-07-26T12:12:24.124Z,100426.19
2022-07-26T12:15:13.311Z,100429.41
2022-07-26T12:18:00.817Z,100416.06
2022-07-26T12:21:05.468Z,100444.69
2022-07-26T12:23:53.064Z,100441.84
2022-07-26T12:26:40.713Z,100439.44
2022-07-26T12:29:32.996Z,100431.59
2022-07-26T12:32:21.780Z,100440.88
2022-07-26T12:35:10.744Z,100438.91
2022-07-26T12:37:59.209Z,100439.47
2022-07-26T12:40:47.385Z,100450.25
2022-07-26T12:43:40.091Z,100441.25
2022-07-26T12:46:27.016Z,100439.31
2022-07-26T12:49:13.975Z,100437.94
2022-07-26T12:52:01.013Z,100448.97
2022-07-26T12:54:51.728Z,100448.50
2022-07-26T12:57:38.662Z,100441.84
2022-07-26T13:00:33.056Z,100438.78
2022-07-26T13:03:20.735Z,100439.28
2022-07-26T13:06:08.092Z,100444.94
2022-07-26T13:08:56.341Z,100447.97
2022-07-26T13:11:44.466Z,100445.44
2022-07-26T13:14:32.667Z,100444.09
2022-07-26T13:17:19.938Z,100448.88
2022-07-26T13:20:07.843Z,100448.78
2022-07-26T13:22:54.424Z,100452.03
2022-07-26T13:25:41.469Z,100449.28
2022-07-26T13:28:30.983Z,100452.72
2022-07-26T13:31:17.809Z,100452.41
2022-07-26T13:34:05.063Z,100457.06
2022-07-26T13:36:52.035Z,100460.03
2022-07-26T13:39:38.925Z,100457.38
2022-07-26T13:42:26.113Z,100450.28
2022-07-26T13:45:14.348Z,100446.16
2022-07-26T13:48:01.350Z,100455.50
2022-07-26T13:50:48.930Z,100456.16
2022-07-26T13:53:36.318Z,100455.00
2022-07-26T13:56:39.409Z,100452.34
2022-07-26T13:59:26.574Z,100462.31
2022-07-26T14:02:15.241Z,100464.25
2022-07-26T14:05:01.985Z,100462.13
2022-07-26T14:07:49.149Z,100463.22
2022-07-26T14:10:39.471Z,100463.72
2022-07-26T14:13:26.181Z,100453.75
2022-07-26T14:16:13.224Z,100465.03
2022-07-26T14:19:01.345Z,100469.16
2022-07-26T14:21:59.574Z,100467.94
2022-07-26T14:24:47.188Z,100474.88
2022-07-26T14:27:34.294Z,100479.56
2022-07-26T14:30:22.113Z,100482.19
2022-07-26T14:33:09.481Z,100474.09
2022-07-26T14:35:57.464Z,100484.97
2022-07-26T14:38:45.453Z,100481.34
2022-07-26T14:41:32.537Z,100481.09
2022-07-26T14:44:19.569Z,100488.91
2022-07-26T14:47:08.575Z,100486.09
2022-07-26T14:49:55.411Z,100479.97
2022-07-26T14:52:46.660Z,100490.06
2022-07-26T14:55:33.533Z,100485.06
2022-07-26T14:58:20.690Z,100494.59
2022-07-26T15:01:07.804Z,100482.75
2022-07-26T15:03:54.596Z,100485.75
2022-07-26T15:06:41.670Z,100493.06
2022-07-26T15:09:29.922Z,100491.66
2022-07-26T15:12:16.793Z,100496.28
2022-07-26T15:15:04.065Z,100498.06
2022-07-26T15:17:50.931Z,100487.41
2022-07-26T15:20:39.591Z,100489.53
2022-07-26T15:23:27.224Z,100492.41
2022-07-26T15:26:15.220Z,100496.03
2022-07-26T15:29:01.868Z,100488.22
2022-07-26T15:31:50.347Z,100489.81
2022-07-26T15:34:37.025Z,100488.97
2022-07-26T15:37:24.744Z,100494.13
2022-07-26T15:40:12.689Z,100491.06
2022-07-26T15:43:00.740Z,100491.28
2022-07-26T15:45:48.010Z,100491.88
2022-07-26T15:48:36.541Z,100495.16
2022-07-26T15:51:24.584Z,100497.03
2022-07-26T15:54:14.035Z,100494.28
2022-07-26T15:57:02.211Z,100496.50
2022-07-26T15:59:50.619Z,100499.19
2022-07-26T16:02:37.660Z,100491.56
2022-07-26T16:05:24.568Z,100499.97
2022-07-26T16:08:11.353Z,100491.81
2022-07-26T16:10:58.511Z,100493.00
2022-07-26T16:13:45.619Z,100488.88
2022-07-26T16:16:34.056Z,100492.59
2022-07-26T16:19:20.707Z,100500.97
2022-07-26T16:22:08.216Z,100488.72
2022-07-26T16:24:55.984Z,100491.41
2022-07-26T16:27:43.704Z,100496.50
2022-07-26T16:30:30.854Z,100499.69
2022-07-26T16:33:19.157Z,100491.78
2022-07-26T16:36:06.823Z,100498.97
2022-07-26T16:38:54.097Z,100494.28
2022-07-26T16:41:40.915Z,100495.97
2022-07-26T16:44:28.112Z,100505.41
2022-07-26T16:47:14.933Z,100502.06
2022-07-26T16:50:03.340Z,100500.84
2022-07-26T16:52:50.179Z,100504.97
2022-07-26T16:55:36.939Z,100512.09
2022-07-26T16:58:23.987Z,100511.28
2022-07-26T17:01:11.072Z,100524.41
2022-07-26T17:03:58.062Z,100521.59
2022-07-26T17:07:07.638Z,100528.38
2022-07-26T17:09:52.993Z,100526.69
2022-07-26T17:12:40.921Z,100522.13
2022-07-26T17:15:28.120Z,100520.84
2022-07-26T17:18:14.974Z,100520.72
2022-07-26T17:21:02.735Z,100527.22
2022-07-26T17:23:51.270Z,100526.50
2022-07-26T17:26:38.219Z,100525.41
2022-07-26T17:29:27.273Z,100522.00
2022-07-26T17:32:14.215Z,100524.84
2022-07-26T17:35:00.980Z,100532.75
2022-07-26T17:37:47.948Z,100532.31
2022-07-26T17:40:36.300Z,100537.41
2022-07-26T17:43:25.449Z,100540.91
2022-07-26T17:46:23.546Z,100538.03
2022-07-26T17:49:11.018Z,100537.81
2022-07-26T17:51:58.622Z,100540.69
2022-07-26T17:54:45.492Z,100537.56
2022-07-26T17:57:33.625Z,100539.50
2022-07-26T18:00:28.844Z,100536.97
2022-07-26T18:03:16.159Z,100530.69
2022-07-26T18:06:02.960Z,100535.06
2022-07-26T18:08:49.847Z,100534.72
2022-07-26T18:11:38.614Z,100539.72
2022-07-26T18:14:26.591Z,100529.81
2022-07-26T18:17:13.402Z,100538.03
2022-07-26T18:20:00.179Z,100534.31
2022-07-26T18:22:50.431Z,100541.78
2022-07-26T18:25:37.560Z,100537.00
2022-07-26T18:28:24.466Z,100540.38
2022-07-26T18:31:12.536Z,100538.13
2022-07-26T18:34:04.319Z,100553.47
2022-07-26T18:36:53.167Z,100552.75
2022-07-26T18:39:40.165Z,100548.22
2022-07-26T18:42:27.407Z,100550.22
2022-07-26T18:45:14.201Z,100556.69
2022-07-26T18:48:02.430Z,100554.81
2022-07-26T18:50:52.228Z,100563.19
2022-07-26T18:53:40.173Z,100567.09
2022-07-26T18:56:28.069Z,100562.31
2022-07-26T18:59:15.248Z,100570.56
2022-07-26T19:02:01.960Z,100563.31
2022-07-26T19:04:50.198Z,100578.00
2022-07-26T19:07:38.166Z,100574.69
2022-07-26T19:10:25.133Z,100582.00
2022-07-26T19:13:11.957Z,100582.34
2022-07-26T19:15:58.807Z,100592.72
2022-07-26T19:18:49.419Z,100585.66
2022-07-26T19:21:40.807Z,100587.66
2022-07-26T19:24:28.745Z,100600.09
2022-07-26T19:27:15.984Z,100588.16
2022-07-26T19:30:02.981Z,100598.06
2022-07-26T19:32:49.961Z,100598.78
2022-07-26T19:35:37.058Z,100601.88
2022-07-26T19:38:25.649Z,100600.44
2022-07-26T19:41:15.903Z,100604.91
2022-07-26T19:44:03.210Z,100604.59
2022-07-26T19:46:55.526Z,100616.00
2022-07-26T19:49:44.067Z,100613.34
2022-07-26T19:52:31.154Z,100609.81
2022-07-26T19:55:19.209Z,100615.34
2022-07-26T19:58:05.971Z,100616.78
2022-07-26T20:00:53.194Z,100618.34
2022-07-26T20:03:40.130Z,100619.13
2022-07-26T20:06:28.201Z,100621.53
2022-07-26T20:09:15.528Z,100620.94
2022-07-26T20:12:05.711Z,100618.38
2022-07-26T20:14:52.791Z,100623.38
2022-07-26T20:17:41.261Z,100623.84
2022-07-26T20:20:28.079Z,100622.66
2022-07-26T20:23:15.222Z,100626.53
2022-07-26T20:26:02.247Z,100623.72
2022-07-26T20:28:50.975Z,100624.34
2022-07-26T20:31:38.051Z,100620.72
2022-07-26T20:34:25.138Z,100626.41
2022-07-26T20:37:12.219Z,100634.56
2022-07-26T20:39:59.283Z,100634.09
2022-07-26T20:42:47.643Z,100633.00
2022-07-26T20:45:38.896Z,100642.09
2022-07-26T20:48:25.657Z,100647.69
2022-07-26T20:51:13.620Z,100651.31
2022-07-26T20:54:00.985Z,100649.97
2022-07-26T20:56:47.842Z,100661.41
2022-07-26T20:59:35.845Z,100662.38
2022-07-26T21:02:24.370Z,100663.59
2022-07-26T21:05:11.811Z,100667.22
2022-07-26T21:07:59.771Z,100669.53
2022-07-26T21:10:47.601Z,100675.09
2022-07-26T21:13:34.730Z,100668.72
2022-07-26T21:16:21.529Z,100670.69
2022-07-26T21:19:09.968Z,100681.38
2022-07-26T21:21:57.063Z,100685.84
2022-07-26T21:24:43.735Z,100693.53
2022-07-26T21:27:30.763Z,100699.72
2022-07-26T21:30:17.700Z,100697.09
2022-07-26T21:33:05.386Z,100704.09
2022-07-26T21:35:53.798Z,100703.69
2022-07-26T21:38:40.734Z,100705.28
2022-07-26T21:41:27.430Z,100704.91
2022-07-26T21:44:14.574Z,100699.06
2022-07-26T21:47:01.542Z,100717.56
2022-07-26T21:49:48.525Z,100716.47
2022-07-26T21:52:36.835Z,100712.00
2022-07-26T21:55:23.504Z,100715.28
2022-07-26T21:58:10.695Z,100715.59
2022-07-26T22:01:06.095Z,100725.59
2022-07-26T22:03:53.625Z,100727.28
2022-07-26T22:06:40.549Z,100726.00
2022-07-26T22:09:28.941Z,100729.94
2022-07-26T22:12:15.788Z,100733.63
2022-07-26T22:15:02.787Z,100739.31
2022-07-26T22:17:49.914Z,100724.63
2022-07-26T22:20:36.940Z,100726.25
2022-07-26T22:23:29.724Z,100731.91
2022-07-26T22:26:17.993Z,100732.44
2022-07-26T22:29:04.801Z,100732.53
2022-07-26T22:31:51.878Z,100739.25
2022-07-26T22:34:38.714Z,100725.31
2022-07-26T22:37:25.708Z,100723.94
2022-07-26T22:40:13.734Z,100726.81
2022-07-26T22:43:02.335Z,100730.97
2022-07-26T22:45:49.409Z,100720.84
2022-07-26T22:48:38.627Z,100733.66
2022-07-26T22:51:26.444Z,100734.53
2022-07-26T22:54:13.682Z,100727.00
2022-07-26T22:57:00.486Z,100738.66
2022-07-26T22:59:48.826Z,100732.13
2022-07-26T23:02:36.729Z,100731.06
2022-07-26T23:05:29.328Z,100728.63
2022-07-26T23:08:48.052Z,100727.25
2022-07-26T23:11:35.062Z,100725.72
2022-07-26T23:14:22.183Z,100727.44
2022-07-26T23:17:10.610Z,100722.34
2022-07-26T23:19:57.189Z,100726.16
2022-07-26T23:22:44.291Z,100728.09
2022-07-26T23:25:31.619Z,100739.13
2022-07-26T23:28:24.902Z,100735.31
2022-07-26T23:31:24.838Z,100736.97
2022-07-26T23:34:13.171Z,100741.25
2022-07-26T23:37:00.453Z,100738.84
2022-07-26T23:39:47.481Z,100738.84
2022-07-26T23:42:34.165Z,100740.75
2022-07-26T23:45:21.277Z,100749.09
2022-07-26T23:48:08.766Z,100735.44
2022-07-26T23:50:57.086Z,100729.44
2022-07-26T23:53:43.937Z,100733.06
2022-07-26T23:56:31.005Z,100726.22
2022-07-26T23:59:18.329Z,100723.53
